sensor_id;sensor_type;location;lat;lon;timestamp;P1;durP1;ratioP1;P2;durP2;ratioP2
39898;SDS011;25571;47.876;10.642;2023-05-01T00:02:00;4.45;;;3.90;;
39898;SDS011;25571;47.876;10.642;2023-05-01T00:04:26;3.85;;;3.55;;
39898;SDS011;25571;47.876;10.642;2023-05-01T00:06:52;5.82;;;3.80;;
39898;SDS011;25571;47.876;10.642;2023-05-01T00:09:18;4.63;;;3.67;;
39898;SDS011;25571;47.876;10.642;2023-05-01T00:11:44;4.85;;;4.25;;
39898;SDS011;25571;47.876;10.642;2023-05-01T00:14:10;4.47;;;4.07;;
39898;SDS011;25571;47.876;10.642;2023-05-01T00:16:36;4.47;;;3.78;;
39898;SDS011;25571;47.876;10.642;2023-05-01T00:19:01;5.13;;;4.32;;
39898;SDS011;25571;47.876;10.642;2023-05-01T00:21:28;4.50;;;4.10;;
39898;SDS011;25571;47.876;10.642;2023-05-01T00:23:54;6.47;;;4.40;;
39898;SDS011;25571;47.876;10.642;2023-05-01T00:26:21;4.53;;;4.13;;
39898;SDS011;25571;47.876;10.642;2023-05-01T00:28:46;4.40;;;3.80;;
39898;SDS011;25571;47.876;10.642;2023-05-01T00:31:12;5.13;;;4.00;;
39898;SDS011;25571;47.876;10.642;2023-05-01T00:33:38;4.05;;;3.38;;
39898;SDS011;25571;47.876;10.642;2023-05-01T00:36:04;3.70;;;3.40;;
39898;SDS011;25571;47.876;10.642;2023-05-01T00:38:30;6.40;;;3.60;;
39898;SDS011;25571;47.876;10.642;2023-05-01T00:40:56;3.92;;;3.22;;
39898;SDS011;25571;47.876;10.642;2023-05-01T00:43:21;4.10;;;3.70;;
39898;SDS011;25571;47.876;10.642;2023-05-01T00:45:47;4.40;;;3.47;;
39898;SDS011;25571;47.876;10.642;2023-05-01T00:48:12;4.60;;;3.40;;
39898;SDS011;25571;47.876;10.642;2023-05-01T00:50:38;4.18;;;3.72;;
39898;SDS011;25571;47.876;10.642;2023-05-01T00:53:05;4.35;;;3.70;;
39898;SDS011;25571;47.876;10.642;2023-05-01T00:55:31;5.03;;;4.03;;
39898;SDS011;25571;47.876;10.642;2023-05-01T00:57:58;5.20;;;4.70;;
39898;SDS011;25571;47.876;10.642;2023-05-01T01:00:24;5.10;;;4.30;;
39898;SDS011;25571;47.876;10.642;2023-05-01T01:02:50;4.15;;;3.75;;
39898;SDS011;25571;47.876;10.642;2023-05-01T01:05:16;4.28;;;3.88;;
39898;SDS011;25571;47.876;10.642;2023-05-01T01:12:51;5.40;;;3.95;;
39898;SDS011;25571;47.876;10.642;2023-05-01T01:15:38;4.88;;;4.38;;
39898;SDS011;25571;47.876;10.642;2023-05-01T01:18:08;6.32;;;4.78;;
39898;SDS011;25571;47.876;10.642;2023-05-01T01:20:44;4.95;;;4.47;;
39898;SDS011;25571;47.876;10.642;2023-05-01T01:28:46;5.13;;;4.55;;
39898;SDS011;25571;47.876;10.642;2023-05-01T01:31:32;4.72;;;3.88;;
39898;SDS011;25571;47.876;10.642;2023-05-01T01:39:23;5.28;;;4.30;;
39898;SDS011;25571;47.876;10.642;2023-05-01T01:41:54;5.95;;;4.57;;
39898;SDS011;25571;47.876;10.642;2023-05-01T01:44:41;6.33;;;4.83;;
39898;SDS011;25571;47.876;10.642;2023-05-01T01:47:12;5.30;;;4.40;;
39898;SDS011;25571;47.876;10.642;2023-05-01T01:49:41;5.85;;;5.22;;
39898;SDS011;25571;47.876;10.642;2023-05-01T01:52:10;5.45;;;4.50;;
39898;SDS011;25571;47.876;10.642;2023-05-01T01:54:41;6.05;;;5.00;;
39898;SDS011;25571;47.876;10.642;2023-05-01T01:57:13;8.50;;;6.65;;
39898;SDS011;25571;47.876;10.642;2023-05-01T01:59:41;6.90;;;5.40;;
39898;SDS011;25571;47.876;10.642;2023-05-01T02:02:08;5.93;;;5.32;;
39898;SDS011;25571;47.876;10.642;2023-05-01T02:04:35;5.80;;;5.20;;
39898;SDS011;25571;47.876;10.642;2023-05-01T02:07:02;5.65;;;4.90;;
39898;SDS011;25571;47.876;10.642;2023-05-01T02:09:29;5.03;;;4.50;;
39898;SDS011;25571;47.876;10.642;2023-05-01T02:11:57;5.60;;;4.68;;
39898;SDS011;25571;47.876;10.642;2023-05-01T02:14:26;5.93;;;4.82;;
39898;SDS011;25571;47.876;10.642;2023-05-01T02:16:53;5.40;;;4.47;;
39898;SDS011;25571;47.876;10.642;2023-05-01T02:19:21;7.70;;;5.25;;
39898;SDS011;25571;47.876;10.642;2023-05-01T02:21:47;6.15;;;4.80;;
39898;SDS011;25571;47.876;10.642;2023-05-01T02:24:14;5.65;;;5.05;;
39898;SDS011;25571;47.876;10.642;2023-05-01T02:26:41;4.63;;;4.20;;
39898;SDS011;25571;47.876;10.642;2023-05-01T02:29:10;5.03;;;4.43;;
39898;SDS011;25571;47.876;10.642;2023-05-01T02:31:36;6.93;;;4.35;;
39898;SDS011;25571;47.876;10.642;2023-05-01T02:34:02;5.65;;;4.50;;
39898;SDS011;25571;47.876;10.642;2023-05-01T02:36:27;4.85;;;3.95;;
39898;SDS011;25571;47.876;10.642;2023-05-01T02:38:53;4.30;;;3.70;;
39898;SDS011;25571;47.876;10.642;2023-05-01T02:41:19;5.20;;;3.70;;
39898;SDS011;25571;47.876;10.642;2023-05-01T02:43:47;5.40;;;3.60;;
39898;SDS011;25571;47.876;10.642;2023-05-01T02:46:19;4.72;;;4.13;;
39898;SDS011;25571;47.876;10.642;2023-05-01T02:48:45;4.75;;;4.05;;
39898;SDS011;25571;47.876;10.642;2023-05-01T02:51:12;4.32;;;3.67;;
39898;SDS011;25571;47.876;10.642;2023-05-01T02:53:38;4.43;;;3.90;;
39898;SDS011;25571;47.876;10.642;2023-05-01T02:56:04;4.28;;;3.85;;
39898;SDS011;25571;47.876;10.642;2023-05-01T02:58:31;4.82;;;4.38;;
39898;SDS011;25571;47.876;10.642;2023-05-01T03:00:58;5.22;;;4.47;;
39898;SDS011;25571;47.876;10.642;2023-05-01T03:03:24;6.05;;;5.00;;
39898;SDS011;25571;47.876;10.642;2023-05-01T03:05:50;5.85;;;4.80;;
39898;SDS011;25571;47.876;10.642;2023-05-01T03:08:16;4.65;;;4.18;;
39898;SDS011;25571;47.876;10.642;2023-05-01T03:10:41;4.65;;;3.92;;
39898;SDS011;25571;47.876;10.642;2023-05-01T03:13:07;4.78;;;4.15;;
39898;SDS011;25571;47.876;10.642;2023-05-01T03:15:35;5.47;;;4.25;;
39898;SDS011;25571;47.876;10.642;2023-05-01T03:18:00;5.05;;;3.65;;
39898;SDS011;25571;47.876;10.642;2023-05-01T03:20:26;5.38;;;3.80;;
39898;SDS011;25571;47.876;10.642;2023-05-01T03:22:51;4.07;;;3.67;;
39898;SDS011;25571;47.876;10.642;2023-05-01T03:25:17;4.35;;;3.92;;
39898;SDS011;25571;47.876;10.642;2023-05-01T03:27:43;3.97;;;3.58;;
39898;SDS011;25571;47.876;10.642;2023-05-01T03:30:08;3.75;;;3.45;;
39898;SDS011;25571;47.876;10.642;2023-05-01T03:32:35;5.15;;;3.85;;
39898;SDS011;25571;47.876;10.642;2023-05-01T03:35:01;4.20;;;3.80;;
39898;SDS011;25571;47.876;10.642;2023-05-01T03:37:27;4.10;;;3.70;;
39898;SDS011;25571;47.876;10.642;2023-05-01T03:39:52;4.10;;;3.70;;
39898;SDS011;25571;47.876;10.642;2023-05-01T03:42:18;3.97;;;3.55;;
39898;SDS011;25571;47.876;10.642;2023-05-01T03:44:44;4.32;;;3.92;;
39898;SDS011;25571;47.876;10.642;2023-05-01T03:47:09;5.70;;;4.05;;
39898;SDS011;25571;47.876;10.642;2023-05-01T03:49:35;4.25;;;3.40;;
39898;SDS011;25571;47.876;10.642;2023-05-01T03:52:01;4.20;;;3.80;;
39898;SDS011;25571;47.876;10.642;2023-05-01T03:54:26;4.05;;;3.70;;
39898;SDS011;25571;47.876;10.642;2023-05-01T03:56:52;4.20;;;3.80;;
39898;SDS011;25571;47.876;10.642;2023-05-01T03:59:18;4.00;;;3.65;;
39898;SDS011;25571;47.876;10.642;2023-05-01T04:01:43;4.32;;;3.92;;
39898;SDS011;25571;47.876;10.642;2023-05-01T04:04:09;4.35;;;3.88;;
39898;SDS011;25571;47.876;10.642;2023-05-01T04:06:35;4.07;;;3.47;;
39898;SDS011;25571;47.876;10.642;2023-05-01T04:09:01;4.45;;;4.05;;
39898;SDS011;25571;47.876;10.642;2023-05-01T04:11:27;4.60;;;4.15;;
39898;SDS011;25571;47.876;10.642;2023-05-01T04:13:52;6.13;;;4.28;;
39898;SDS011;25571;47.876;10.642;2023-05-01T04:16:18;5.57;;;3.90;;
39898;SDS011;25571;47.876;10.642;2023-05-01T04:18:43;4.10;;;3.50;;
39898;SDS011;25571;47.876;10.642;2023-05-01T04:21:09;4.32;;;3.53;;
39898;SDS011;25571;47.876;10.642;2023-05-01T04:23:34;4.82;;;4.03;;
39898;SDS011;25571;47.876;10.642;2023-05-01T04:26:00;4.57;;;4.18;;
39898;SDS011;25571;47.876;10.642;2023-05-01T04:28:25;5.18;;;4.18;;
39898;SDS011;25571;47.876;10.642;2023-05-01T04:30:54;6.00;;;4.30;;
39898;SDS011;25571;47.876;10.642;2023-05-01T04:33:21;4.30;;;3.90;;
39898;SDS011;25571;47.876;10.642;2023-05-01T04:35:47;4.63;;;4.07;;
39898;SDS011;25571;47.876;10.642;2023-05-01T04:38:13;4.75;;;4.18;;
39898;SDS011;25571;47.876;10.642;2023-05-01T04:40:39;4.38;;;3.95;;
39898;SDS011;25571;47.876;10.642;2023-05-01T04:43:05;5.60;;;4.40;;
39898;SDS011;25571;47.876;10.642;2023-05-01T04:45:30;5.45;;;4.32;;
39898;SDS011;25571;47.876;10.642;2023-05-01T04:47:56;4.70;;;4.30;;
39898;SDS011;25571;47.876;10.642;2023-05-01T04:50:22;4.68;;;4.22;;
39898;SDS011;25571;47.876;10.642;2023-05-01T04:52:48;5.25;;;4.75;;
39898;SDS011;25571;47.876;10.642;2023-05-01T04:55:13;7.97;;;4.93;;
39898;SDS011;25571;47.876;10.642;2023-05-01T04:57:39;5.55;;;4.55;;
39898;SDS011;25571;47.876;10.642;2023-05-01T05:00:05;7.13;;;4.72;;
39898;SDS011;25571;47.876;10.642;2023-05-01T05:02:31;5.10;;;4.45;;
39898;SDS011;25571;47.876;10.642;2023-05-01T05:04:57;4.72;;;3.88;;
39898;SDS011;25571;47.876;10.642;2023-05-01T05:07:23;9.57;;;7.88;;
39898;SDS011;25571;47.876;10.642;2023-05-01T05:09:48;9.32;;;8.07;;
39898;SDS011;25571;47.876;10.642;2023-05-01T05:12:14;8.23;;;6.95;;
39898;SDS011;25571;47.876;10.642;2023-05-01T05:14:40;5.68;;;4.97;;
39898;SDS011;25571;47.876;10.642;2023-05-01T05:17:06;5.38;;;4.88;;
39898;SDS011;25571;47.876;10.642;2023-05-01T05:19:32;5.43;;;4.82;;
39898;SDS011;25571;47.876;10.642;2023-05-01T05:21:58;4.70;;;4.28;;
39898;SDS011;25571;47.876;10.642;2023-05-01T05:24:26;5.60;;;4.75;;
39898;SDS011;25571;47.876;10.642;2023-05-01T05:26:51;5.03;;;4.53;;
39898;SDS011;25571;47.876;10.642;2023-05-01T05:29:18;5.10;;;4.60;;
39898;SDS011;25571;47.876;10.642;2023-05-01T05:31:43;5.25;;;4.30;;
39898;SDS011;25571;47.876;10.642;2023-05-01T05:34:09;4.68;;;4.22;;
39898;SDS011;25571;47.876;10.642;2023-05-01T05:36:35;4.80;;;4.38;;
39898;SDS011;25571;47.876;10.642;2023-05-01T05:39:01;4.85;;;4.45;;
39898;SDS011;25571;47.876;10.642;2023-05-01T05:41:27;4.47;;;4.07;;
39898;SDS011;25571;47.876;10.642;2023-05-01T05:43:53;4.53;;;4.13;;
39898;SDS011;25571;47.876;10.642;2023-05-01T05:46:19;5.10;;;4.70;;
39898;SDS011;25571;47.876;10.642;2023-05-01T05:48:44;4.53;;;4.13;;
39898;SDS011;25571;47.876;10.642;2023-05-01T05:51:10;4.82;;;4.43;;
39898;SDS011;25571;47.876;10.642;2023-05-01T05:53:36;4.75;;;4.15;;
39898;SDS011;25571;47.876;10.642;2023-05-01T05:56:02;5.30;;;4.32;;
39898;SDS011;25571;47.876;10.642;2023-05-01T05:58:28;5.63;;;4.90;;
39898;SDS011;25571;47.876;10.642;2023-05-01T06:00:54;5.68;;;4.47;;
39898;SDS011;25571;47.876;10.642;2023-05-01T06:03:20;4.90;;;4.40;;
39898;SDS011;25571;47.876;10.642;2023-05-01T06:05:45;4.53;;;4.13;;
39898;SDS011;25571;47.876;10.642;2023-05-01T06:08:11;5.20;;;4.60;;
39898;SDS011;25571;47.876;10.642;2023-05-01T06:10:38;5.40;;;4.90;;
39898;SDS011;25571;47.876;10.642;2023-05-01T06:13:06;5.90;;;5.30;;
39898;SDS011;25571;47.876;10.642;2023-05-01T06:18:01;5.88;;;4.72;;
39898;SDS011;25571;47.876;10.642;2023-05-01T06:20:27;5.82;;;5.32;;
39898;SDS011;25571;47.876;10.642;2023-05-01T06:22:53;7.28;;;5.68;;
39898;SDS011;25571;47.876;10.642;2023-05-01T06:25:19;5.85;;;5.18;;
39898;SDS011;25571;47.876;10.642;2023-05-01T06:27:45;6.22;;;5.30;;
39898;SDS011;25571;47.876;10.642;2023-05-01T06:30:11;5.95;;;5.40;;
39898;SDS011;25571;47.876;10.642;2023-05-01T06:32:36;6.18;;;5.50;;
39898;SDS011;25571;47.876;10.642;2023-05-01T06:35:02;5.90;;;5.40;;
39898;SDS011;25571;47.876;10.642;2023-05-01T06:37:28;5.53;;;5.03;;
39898;SDS011;25571;47.876;10.642;2023-05-01T06:39:54;5.47;;;4.70;;
39898;SDS011;25571;47.876;10.642;2023-05-01T06:42:20;6.10;;;4.53;;
39898;SDS011;25571;47.876;10.642;2023-05-01T06:44:45;5.20;;;4.70;;
39898;SDS011;25571;47.876;10.642;2023-05-01T06:47:11;6.90;;;5.25;;
39898;SDS011;25571;47.876;10.642;2023-05-01T06:49:37;5.38;;;4.93;;
39898;SDS011;25571;47.876;10.642;2023-05-01T06:52:02;6.53;;;5.82;;
39898;SDS011;25571;47.876;10.642;2023-05-01T06:54:28;5.20;;;4.70;;
39898;SDS011;25571;47.876;10.642;2023-05-01T06:56:54;6.85;;;6.15;;
39898;SDS011;25571;47.876;10.642;2023-05-01T06:59:19;5.55;;;4.93;;
39898;SDS011;25571;47.876;10.642;2023-05-01T07:01:45;5.07;;;4.63;;
39898;SDS011;25571;47.876;10.642;2023-05-01T07:04:11;5.60;;;5.10;;
39898;SDS011;25571;47.876;10.642;2023-05-01T07:06:36;6.45;;;5.72;;
39898;SDS011;25571;47.876;10.642;2023-05-01T07:09:03;6.18;;;5.07;;
39898;SDS011;25571;47.876;10.642;2023-05-01T07:11:29;5.30;;;4.80;;
39898;SDS011;25571;47.876;10.642;2023-05-01T07:13:55;5.25;;;4.75;;
39898;SDS011;25571;47.876;10.642;2023-05-01T07:16:20;5.20;;;4.70;;
39898;SDS011;25571;47.876;10.642;2023-05-01T07:18:46;4.97;;;4.35;;
39898;SDS011;25571;47.876;10.642;2023-05-01T07:21:11;4.70;;;4.25;;
39898;SDS011;25571;47.876;10.642;2023-05-01T07:23:37;5.68;;;5.13;;
39898;SDS011;25571;47.876;10.642;2023-05-01T07:26:03;6.00;;;5.40;;
39898;SDS011;25571;47.876;10.642;2023-05-01T07:28:30;6.20;;;5.60;;
39898;SDS011;25571;47.876;10.642;2023-05-01T07:30:55;4.90;;;4.40;;
39898;SDS011;25571;47.876;10.642;2023-05-01T07:33:21;5.78;;;5.15;;
39898;SDS011;25571;47.876;10.642;2023-05-01T07:35:48;5.45;;;4.88;;
39898;SDS011;25571;47.876;10.642;2023-05-01T07:38:14;5.80;;;5.20;;
39898;SDS011;25571;47.876;10.642;2023-05-01T07:40:40;6.53;;;5.05;;
39898;SDS011;25571;47.876;10.642;2023-05-01T07:43:06;5.55;;;4.80;;
39898;SDS011;25571;47.876;10.642;2023-05-01T07:45:35;5.88;;;5.13;;
39898;SDS011;25571;47.876;10.642;2023-05-01T07:48:01;6.03;;;5.32;;
39898;SDS011;25571;47.876;10.642;2023-05-01T07:50:26;5.85;;;5.30;;
39898;SDS011;25571;47.876;10.642;2023-05-01T07:52:52;5.32;;;4.82;;
39898;SDS011;25571;47.876;10.642;2023-05-01T07:55:19;6.22;;;5.63;;
39898;SDS011;25571;47.876;10.642;2023-05-01T07:57:46;6.03;;;5.10;;
39898;SDS011;25571;47.876;10.642;2023-05-01T08:00:12;5.68;;;5.10;;
39898;SDS011;25571;47.876;10.642;2023-05-01T08:02:38;5.40;;;4.90;;
39898;SDS011;25571;47.876;10.642;2023-05-01T08:05:04;6.00;;;4.75;;
39898;SDS011;25571;47.876;10.642;2023-05-01T08:07:30;5.40;;;4.90;;
39898;SDS011;25571;47.876;10.642;2023-05-01T08:09:56;5.88;;;5.35;;
39898;SDS011;25571;47.876;10.642;2023-05-01T08:12:21;5.28;;;4.78;;
39898;SDS011;25571;47.876;10.642;2023-05-01T08:14:47;5.15;;;4.65;;
39898;SDS011;25571;47.876;10.642;2023-05-01T08:17:13;5.75;;;4.68;;
39898;SDS011;25571;47.876;10.642;2023-05-01T08:19:39;5.88;;;5.28;;
39898;SDS011;25571;47.876;10.642;2023-05-01T08:22:04;5.63;;;5.05;;
39898;SDS011;25571;47.876;10.642;2023-05-01T08:24:30;5.47;;;4.88;;
39898;SDS011;25571;47.876;10.642;2023-05-01T08:26:55;5.97;;;5.18;;
39898;SDS011;25571;47.876;10.642;2023-05-01T08:29:22;5.78;;;5.18;;
39898;SDS011;25571;47.876;10.642;2023-05-01T08:31:47;5.13;;;4.55;;
39898;SDS011;25571;47.876;10.642;2023-05-01T08:34:13;5.47;;;4.85;;
39898;SDS011;25571;47.876;10.642;2023-05-01T08:36:39;5.28;;;4.78;;
39898;SDS011;25571;47.876;10.642;2023-05-01T08:39:04;7.50;;;5.85;;
39898;SDS011;25571;47.876;10.642;2023-05-01T08:41:30;5.53;;;5.03;;
39898;SDS011;25571;47.876;10.642;2023-05-01T08:43:57;5.40;;;4.90;;
39898;SDS011;25571;47.876;10.642;2023-05-01T08:46:32;5.47;;;4.97;;
39898;SDS011;25571;47.876;10.642;2023-05-01T08:49:16;5.00;;;4.60;;
39898;SDS011;25571;47.876;10.642;2023-05-01T08:51:44;5.78;;;5.13;;
39898;SDS011;25571;47.876;10.642;2023-05-01T08:54:12;6.32;;;5.18;;
39898;SDS011;25571;47.876;10.642;2023-05-01T08:56:39;5.72;;;5.20;;
39898;SDS011;25571;47.876;10.642;2023-05-01T08:59:07;5.70;;;5.10;;
39898;SDS011;25571;47.876;10.642;2023-05-01T09:01:35;5.78;;;5.22;;
39898;SDS011;25571;47.876;10.642;2023-05-01T09:04:02;5.30;;;4.82;;
39898;SDS011;25571;47.876;10.642;2023-05-01T09:06:28;6.25;;;4.90;;
39898;SDS011;25571;47.876;10.642;2023-05-01T09:08:56;6.00;;;5.40;;
39898;SDS011;25571;47.876;10.642;2023-05-01T09:11:22;6.53;;;5.82;;
39898;SDS011;25571;47.876;10.642;2023-05-01T09:13:48;7.57;;;5.85;;
39898;SDS011;25571;47.876;10.642;2023-05-01T09:16:15;6.65;;;6.00;;
39898;SDS011;25571;47.876;10.642;2023-05-01T09:18:41;6.40;;;5.80;;
39898;SDS011;25571;47.876;10.642;2023-05-01T09:21:07;5.53;;;5.00;;
39898;SDS011;25571;47.876;10.642;2023-05-01T09:23:32;5.90;;;5.40;;
39898;SDS011;25571;47.876;10.642;2023-05-01T09:26:04;6.22;;;5.63;;
39898;SDS011;25571;47.876;10.642;2023-05-01T09:28:45;6.35;;;5.72;;
39898;SDS011;25571;47.876;10.642;2023-05-01T09:34:06;5.28;;;4.88;;
39898;SDS011;25571;47.876;10.642;2023-05-01T09:36:32;6.05;;;5.45;;
39898;SDS011;25571;47.876;10.642;2023-05-01T09:38:58;5.75;;;5.00;;
39898;SDS011;25571;47.876;10.642;2023-05-01T09:41:25;5.82;;;4.75;;
39898;SDS011;25571;47.876;10.642;2023-05-01T09:43:52;5.18;;;4.68;;
39898;SDS011;25571;47.876;10.642;2023-05-01T09:46:19;4.93;;;4.38;;
39898;SDS011;25571;47.876;10.642;2023-05-01T09:48:59;5.05;;;4.65;;
39898;SDS011;25571;47.876;10.642;2023-05-01T09:51:28;5.72;;;5.13;;
39898;SDS011;25571;47.876;10.642;2023-05-01T09:53:56;5.43;;;4.80;;
39898;SDS011;25571;47.876;10.642;2023-05-01T09:56:26;5.53;;;4.50;;
39898;SDS011;25571;47.876;10.642;2023-05-01T09:58:53;5.28;;;4.78;;
39898;SDS011;25571;47.876;10.642;2023-05-01T10:01:36;5.85;;;5.10;;
39898;SDS011;25571;47.876;10.642;2023-05-01T10:04:03;5.78;;;5.15;;
39898;SDS011;25571;47.876;10.642;2023-05-01T10:06:29;5.43;;;4.70;;
39898;SDS011;25571;47.876;10.642;2023-05-01T10:08:55;4.95;;;4.47;;
39898;SDS011;25571;47.876;10.642;2023-05-01T10:11:21;5.55;;;5.00;;
39898;SDS011;25571;47.876;10.642;2023-05-01T10:14:06;6.28;;;5.68;;
39898;SDS011;25571;47.876;10.642;2023-05-01T10:16:33;5.75;;;4.78;;
39898;SDS011;25571;47.876;10.642;2023-05-01T10:19:00;4.88;;;4.47;;
39898;SDS011;25571;47.876;10.642;2023-05-01T10:21:27;6.80;;;5.05;;
39898;SDS011;25571;47.876;10.642;2023-05-01T10:23:53;5.70;;;5.18;;
39898;SDS011;25571;47.876;10.642;2023-05-01T10:26:19;5.18;;;4.78;;
39898;SDS011;25571;47.876;10.642;2023-05-01T10:28:46;5.45;;;4.95;;
39898;SDS011;25571;47.876;10.642;2023-05-01T10:31:13;5.22;;;4.72;;
39898;SDS011;25571;47.876;10.642;2023-05-01T10:33:39;6.07;;;5.47;;
39898;SDS011;25571;47.876;10.642;2023-05-01T10:36:08;5.15;;;4.65;;
39898;SDS011;25571;47.876;10.642;2023-05-01T10:38:43;4.78;;;4.38;;
39898;SDS011;25571;47.876;10.642;2023-05-01T10:41:14;4.57;;;4.15;;
39898;SDS011;25571;47.876;10.642;2023-05-01T10:43:40;5.95;;;4.68;;
39898;SDS011;25571;47.876;10.642;2023-05-01T10:53:38;4.80;;;4.28;;
39898;SDS011;25571;47.876;10.642;2023-05-01T10:56:51;5.28;;;4.38;;
39898;SDS011;25571;47.876;10.642;2023-05-01T11:01:27;4.68;;;4.15;;
39898;SDS011;25571;47.876;10.642;2023-05-01T11:03:53;4.70;;;4.20;;
39898;SDS011;25571;47.876;10.642;2023-05-01T11:08:48;4.97;;;4.47;;
39898;SDS011;25571;47.876;10.642;2023-05-01T11:13:58;7.15;;;4.97;;
39898;SDS011;25571;47.876;10.642;2023-05-01T11:19:03;3.70;;;3.33;;
39898;SDS011;25571;47.876;10.642;2023-05-01T11:21:33;4.10;;;3.45;;
39898;SDS011;25571;47.876;10.642;2023-05-01T11:24:00;5.55;;;4.60;;
39898;SDS011;25571;47.876;10.642;2023-05-01T11:26:30;4.53;;;3.97;;
39898;SDS011;25571;47.876;10.642;2023-05-01T11:28:59;4.72;;;4.18;;
39898;SDS011;25571;47.876;10.642;2023-05-01T11:31:26;4.18;;;3.78;;
39898;SDS011;25571;47.876;10.642;2023-05-01T11:33:56;4.50;;;4.10;;
39898;SDS011;25571;47.876;10.642;2023-05-01T11:36:22;4.53;;;3.88;;
39898;SDS011;25571;47.876;10.642;2023-05-01T11:38:51;3.70;;;3.40;;
39898;SDS011;25571;47.876;10.642;2023-05-01T11:41:22;4.30;;;3.65;;
39898;SDS011;25571;47.876;10.642;2023-05-01T11:43:49;4.03;;;3.63;;
39898;SDS011;25571;47.876;10.642;2023-05-01T11:46:23;4.30;;;3.90;;
39898;SDS011;25571;47.876;10.642;2023-05-01T11:48:57;4.25;;;3.85;;
39898;SDS011;25571;47.876;10.642;2023-05-01T11:51:28;3.72;;;3.28;;
39898;SDS011;25571;47.876;10.642;2023-05-01T11:56:27;4.38;;;4.00;;
39898;SDS011;25571;47.876;10.642;2023-05-01T11:58:57;3.50;;;3.20;;
39898;SDS011;25571;47.876;10.642;2023-05-01T12:01:33;4.28;;;3.40;;
39898;SDS011;25571;47.876;10.642;2023-05-01T12:04:00;3.67;;;3.15;;
39898;SDS011;25571;47.876;10.642;2023-05-01T12:06:39;4.40;;;3.30;;
39898;SDS011;25571;47.876;10.642;2023-05-01T12:09:10;3.67;;;3.35;;
39898;SDS011;25571;47.876;10.642;2023-05-01T12:11:41;4.30;;;3.90;;
39898;SDS011;25571;47.876;10.642;2023-05-01T12:14:07;4.28;;;3.67;;
39898;SDS011;25571;47.876;10.642;2023-05-01T12:16:34;3.72;;;3.35;;
39898;SDS011;25571;47.876;10.642;2023-05-01T12:19:01;4.28;;;3.67;;
39898;SDS011;25571;47.876;10.642;2023-05-01T12:21:28;4.13;;;3.53;;
39898;SDS011;25571;47.876;10.642;2023-05-01T12:23:54;3.67;;;3.38;;
39898;SDS011;25571;47.876;10.642;2023-05-01T12:26:22;3.97;;;3.45;;
39898;SDS011;25571;47.876;10.642;2023-05-01T12:28:55;3.78;;;3.47;;
39898;SDS011;25571;47.876;10.642;2023-05-01T12:31:25;3.03;;;2.83;;
39898;SDS011;25571;47.876;10.642;2023-05-01T12:34:12;3.60;;;3.10;;
39898;SDS011;25571;47.876;10.642;2023-05-01T12:36:37;3.00;;;2.80;;
39898;SDS011;25571;47.876;10.642;2023-05-01T12:39:06;3.75;;;3.40;;
39898;SDS011;25571;47.876;10.642;2023-05-01T12:41:40;2.78;;;2.55;;
39898;SDS011;25571;47.876;10.642;2023-05-01T12:46:43;2.92;;;2.63;;
39898;SDS011;25571;47.876;10.642;2023-05-01T12:49:15;3.28;;;2.47;;
39898;SDS011;25571;47.876;10.642;2023-05-01T12:51:46;2.75;;;2.55;;
39898;SDS011;25571;47.876;10.642;2023-05-01T12:54:20;2.90;;;2.60;;
39898;SDS011;25571;47.876;10.642;2023-05-01T12:56:52;2.42;;;2.22;;
39898;SDS011;25571;47.876;10.642;2023-05-01T12:59:28;2.80;;;2.60;;
39898;SDS011;25571;47.876;10.642;2023-05-01T13:02:01;2.67;;;2.45;;
39898;SDS011;25571;47.876;10.642;2023-05-01T13:04:28;3.20;;;2.90;;
39898;SDS011;25571;47.876;10.642;2023-05-01T13:06:54;3.10;;;2.45;;
39898;SDS011;25571;47.876;10.642;2023-05-01T13:09:21;2.72;;;2.53;;
39898;SDS011;25571;47.876;10.642;2023-05-01T13:14:23;2.67;;;2.08;;
39898;SDS011;25571;47.876;10.642;2023-05-01T13:16:49;2.30;;;2.00;;
39898;SDS011;25571;47.876;10.642;2023-05-01T13:19:24;2.42;;;2.10;;
39898;SDS011;25571;47.876;10.642;2023-05-01T13:21:55;2.08;;;1.90;;
39898;SDS011;25571;47.876;10.642;2023-05-01T13:24:22;2.20;;;2.00;;
39898;SDS011;25571;47.876;10.642;2023-05-01T13:26:55;2.63;;;2.42;;
39898;SDS011;25571;47.876;10.642;2023-05-01T13:29:25;2.67;;;2.47;;
39898;SDS011;25571;47.876;10.642;2023-05-01T13:31:51;2.60;;;2.30;;
39898;SDS011;25571;47.876;10.642;2023-05-01T13:34:19;2.58;;;2.25;;
39898;SDS011;25571;47.876;10.642;2023-05-01T13:36:51;1.98;;;1.85;;
39898;SDS011;25571;47.876;10.642;2023-05-01T13:39:18;2.88;;;2.35;;
39898;SDS011;25571;47.876;10.642;2023-05-01T13:41:47;2.30;;;1.92;;
39898;SDS011;25571;47.876;10.642;2023-05-01T13:44:13;2.15;;;2.05;;
39898;SDS011;25571;47.876;10.642;2023-05-01T13:46:41;2.47;;;2.28;;
39898;SDS011;25571;47.876;10.642;2023-05-01T13:49:06;2.33;;;2.13;;
39898;SDS011;25571;47.876;10.642;2023-05-01T13:51:32;5.40;;;2.22;;
39898;SDS011;25571;47.876;10.642;2023-05-01T13:54:01;3.22;;;2.22;;
39898;SDS011;25571;47.876;10.642;2023-05-01T13:56:27;2.33;;;2.00;;
39898;SDS011;25571;47.876;10.642;2023-05-01T13:58:53;2.17;;;1.98;;
39898;SDS011;25571;47.876;10.642;2023-05-01T14:01:19;2.53;;;2.30;;
39898;SDS011;25571;47.876;10.642;2023-05-01T14:03:46;2.38;;;2.17;;
39898;SDS011;25571;47.876;10.642;2023-05-01T14:06:19;2.90;;;2.58;;
39898;SDS011;25571;47.876;10.642;2023-05-01T14:08:45;2.50;;;2.30;;
39898;SDS011;25571;47.876;10.642;2023-05-01T14:11:12;2.50;;;2.30;;
39898;SDS011;25571;47.876;10.642;2023-05-01T14:13:39;2.60;;;2.40;;
39898;SDS011;25571;47.876;10.642;2023-05-01T14:16:06;3.80;;;2.38;;
39898;SDS011;25571;47.876;10.642;2023-05-01T14:18:44;2.22;;;2.10;;
39898;SDS011;25571;47.876;10.642;2023-05-01T14:21:15;2.05;;;1.95;;
39898;SDS011;25571;47.876;10.642;2023-05-01T14:23:42;2.45;;;2.25;;
39898;SDS011;25571;47.876;10.642;2023-05-01T14:26:08;2.28;;;2.08;;
39898;SDS011;25571;47.876;10.642;2023-05-01T14:28:41;2.13;;;2.03;;
39898;SDS011;25571;47.876;10.642;2023-05-01T14:31:08;2.08;;;1.90;;
39898;SDS011;25571;47.876;10.642;2023-05-01T14:33:45;2.45;;;2.25;;
39898;SDS011;25571;47.876;10.642;2023-05-01T14:36:11;2.40;;;2.20;;
39898;SDS011;25571;47.876;10.642;2023-05-01T14:38:38;2.38;;;2.15;;
39898;SDS011;25571;47.876;10.642;2023-05-01T14:41:04;2.15;;;1.95;;
39898;SDS011;25571;47.876;10.642;2023-05-01T14:43:30;3.03;;;2.50;;
39898;SDS011;25571;47.876;10.642;2023-05-01T14:45:57;2.38;;;2.17;;
39898;SDS011;25571;47.876;10.642;2023-05-01T14:48:24;2.35;;;1.90;;
39898;SDS011;25571;47.876;10.642;2023-05-01T14:50:53;2.50;;;2.30;;
39898;SDS011;25571;47.876;10.642;2023-05-01T14:53:19;2.38;;;2.17;;
39898;SDS011;25571;47.876;10.642;2023-05-01T14:55:45;3.83;;;2.47;;
39898;SDS011;25571;47.876;10.642;2023-05-01T14:58:14;3.28;;;2.97;;
39898;SDS011;25571;47.876;10.642;2023-05-01T15:00:39;3.30;;;2.70;;
39898;SDS011;25571;47.876;10.642;2023-05-01T15:03:05;2.58;;;2.35;;
39898;SDS011;25571;47.876;10.642;2023-05-01T15:05:30;3.15;;;2.58;;
39898;SDS011;25571;47.876;10.642;2023-05-01T15:07:57;2.85;;;2.58;;
39898;SDS011;25571;47.876;10.642;2023-05-01T15:12:52;2.00;;;1.88;;
39898;SDS011;25571;47.876;10.642;2023-05-01T15:15:18;2.47;;;1.88;;
39898;SDS011;25571;47.876;10.642;2023-05-01T15:17:44;2.45;;;1.52;;
39898;SDS011;25571;47.876;10.642;2023-05-01T15:20:10;2.20;;;1.92;;
39898;SDS011;25571;47.876;10.642;2023-05-01T15:22:36;2.03;;;1.83;;
39898;SDS011;25571;47.876;10.642;2023-05-01T15:25:02;2.03;;;1.77;;